Skip to main content

NOAA/GLERL Met Station at Chicago, IL

Previous 3 Hours (2 minute increments)
See also Previous 5 Days (top of hour)
Jump down to Data
Switch to [English][Metric]
Zoom: Click and drag, Pan: shift-click and drag, Unzoom: double-click, Unzoom All




See also 1-day windrose plot


NOAA/GLERL Met Station at Chicago, IL

Previous 3 Hours (2 minute increments)
See also Previous 5 Days (top of hour only)
Jump up to Graphs
Switch to [English][Metric]
                  Wind  Wind  Wind   Air   Dew   Rel
                   Spd   Gst   Dir  Temp    Pt   Hum
YYYY-MM-DD   CDT   kts   kts   deg     F     F     %
2018-09-26 04:36  17.1  19.2   310  56.8  49.0  74.7
2018-09-26 04:34  18.7  22.2   306  57.0  49.3  75.1
2018-09-26 04:32  16.3  18.9   313  57.0  49.1  74.6
2018-09-26 04:30  18.3  20.2   315  57.0  49.0  74.4
2018-09-26 04:28  18.5  21.0   319  57.0  48.8  73.8
2018-09-26 04:26  18.5  20.0   312  57.0  49.0  74.3
2018-09-26 04:24  18.9  20.6   318  57.2  48.9  73.5
2018-09-26 04:22  18.3  20.8   318  57.2  49.2  74.3
2018-09-26 04:20  17.7  21.0   312  57.2  48.9  73.4
2018-09-26 04:18  17.1  18.7   317  57.4  49.4  74.3
2018-09-26 04:16  18.3  20.8   313  57.6  49.5  74.2
2018-09-26 04:14  18.3  19.8   315  57.4  49.3  74.0
2018-09-26 04:12  19.8  21.8   311  57.6  49.3  73.6
2018-09-26 04:10  20.2  21.8   322  57.4  48.7  72.4
2018-09-26 04:08  20.4  22.9   325  57.4  48.6  72.1
2018-09-26 04:06  19.6  22.6   317  57.6  48.6  71.7
2018-09-26 04:04  19.4  20.6   316  58.1  49.4  72.6
2018-09-26 04:02  18.3  20.6   329  58.3  50.6  75.4
2018-09-26 04:00  20.0  22.6   324  58.3  50.1  74.0
2018-09-26 03:58  19.6  22.0   322  58.8  51.1  75.3
2018-09-26 03:56  15.7  18.1   318  58.8  51.3  75.7
2018-09-26 03:54  15.6  17.3   304  58.6  51.0  75.5
2018-09-26 03:52  16.9  18.7   302  58.5  50.6  74.7
2018-09-26 03:50  15.7  18.3   303  58.6  50.8  74.8
2018-09-26 03:48  15.2  17.3   306  58.6  50.7  74.6
2018-09-26 03:46  15.7  17.9   308  58.6  50.8  74.8
2018-09-26 03:44  16.9  18.7   301  58.6  50.5  74.2
2018-09-26 03:42  17.5  20.8   300  58.6  50.6  74.4
2018-09-26 03:40  16.5  20.0   300  58.8  51.2  75.5
2018-09-26 03:38  16.3  19.4   296  58.5  50.2  73.7
2018-09-26 03:36  19.1  21.2   294  58.6  50.2  73.2
2018-09-26 03:34  18.1  20.6   293  58.6  50.3  73.6
2018-09-26 03:32  18.7  20.4   300  58.8  50.7  74.0
2018-09-26 03:30  19.6  21.2   300  58.6  49.9  72.4
2018-09-26 03:28  20.8  22.4   298  59.0  50.4  72.7
2018-09-26 03:26  18.3  20.6   304  59.4  51.3  74.3
2018-09-26 03:24  18.1  20.6   310  59.2  50.3  72.2
2018-09-26 03:22  17.3  20.0   299  59.2  50.2  71.7
2018-09-26 03:20  18.1  20.6   299  59.5  50.4  71.4
2018-09-26 03:18  16.1  19.6   300  59.7  51.0  72.6
2018-09-26 03:16  17.3  19.8   305  59.7  50.3  70.7
2018-09-26 03:14  18.5  20.6   304  59.7  49.9  69.7
2018-09-26 03:12  17.1  19.6   312  59.9  50.6  70.9
2018-09-26 03:10  19.4  22.0   314  59.7  50.1  70.1
2018-09-26 03:08  19.1  23.3   309  59.9  50.8  71.6
2018-09-26 03:06  19.4  22.7   300  59.7  50.0  69.8
2018-09-26 03:04  19.2  21.8   305  59.9  50.6  71.1
2018-09-26 03:02  18.7  21.0   307  60.3  51.7  73.0
2018-09-26 03:00  20.8  22.9   309  60.3  50.7  70.4
2018-09-26 02:58  19.1  23.3   310  60.4  51.2  71.3
2018-09-26 02:56  16.7  19.4   317  60.3  51.2  71.7
2018-09-26 02:54  17.9  20.6   314  60.4  51.2  71.3
2018-09-26 02:52  16.3  19.1   315  60.4  51.6  72.2
2018-09-26 02:50  16.9  19.2   314  60.4  51.9  73.2
2018-09-26 02:48  19.4  21.8   315  60.4  51.4  71.9
2018-09-26 02:46  18.9  21.0   315  60.3  51.6  72.8
2018-09-26 02:44  17.9  19.4   313  60.3  52.0  73.8
2018-09-26 02:42  17.3  18.7   314  60.3  52.2  74.4
2018-09-26 02:40  19.6  21.4   312  60.3  52.0  74.0
2018-09-26 02:38  19.4  21.0   315  60.4  52.7  75.4
2018-09-26 02:36  19.1  21.4   311  60.3  52.1  74.2
2018-09-26 02:34  19.4  23.3   311  60.4  52.5  74.9
2018-09-26 02:32  19.8  22.0   312  60.3  52.1  74.1
2018-09-26 02:30  21.6  26.2   306  60.3  52.1  74.2
2018-09-26 02:28  21.2  24.5   304  60.4  52.5  74.8
2018-09-26 02:26  22.7  25.1   302  60.4  52.6  75.0
2018-09-26 02:24  20.0  22.9   304  60.8  53.3  76.0
2018-09-26 02:22  19.2  21.4   301  60.6  53.2  76.2
2018-09-26 02:20  19.1  21.2   305  60.8  53.5  76.7
2018-09-26 02:18  20.4  23.1   303  60.6  53.2  76.2
2018-09-26 02:16  22.0  23.1   303  60.8  53.6  76.8
2018-09-26 02:14  19.4  23.1   300  61.0  54.4  78.7
2018-09-26 02:12  19.2  20.6   310  61.0  53.9  77.1
2018-09-26 02:10  19.2  21.2   314  61.2  54.5  78.6
2018-09-26 02:08  23.1  24.7   313  61.0  53.6  76.4
2018-09-26 02:06  22.4  25.1   304  61.3  54.1  76.7
2018-09-26 02:04  21.4  23.7   304  61.3  54.2  77.0
2018-09-26 02:02  20.6  23.1   304  61.5  54.3  76.9
2018-09-26 02:00  21.8  23.3   298  61.7  54.3  76.4
2018-09-26 01:58  20.4  23.1   301  61.9  54.5  76.4
2018-09-26 01:56  23.1  24.7   301  61.9  54.4  76.2
2018-09-26 01:54  20.4  25.3   297  62.1  55.2  78.0
2018-09-26 01:52  18.3  20.8   301  62.1  54.9  77.0
2018-09-26 01:50  19.2  21.0   311  62.1  55.3  78.2
2018-09-26 01:48  20.8  23.5   308  62.2  55.6  78.6
2018-09-26 01:46  19.8  22.9   308  62.2  55.7  78.8
2018-09-26 01:44  18.7  22.4   308  62.4  56.5  80.8
2018-09-26 01:42  19.8  23.3   316  62.1  55.5  78.9
2018-09-26 01:40  21.6  24.7   307  62.2  55.8  79.1
2018-09-26 01:38  21.0  24.3   310  62.4  56.3  80.2
2018-09-26 01:36  20.4  24.1   304  62.2  55.9  79.6